Time;durP1;ratioP1;P1;durP2;ratioP2;P2;SDS_P1;SDS_P2;PMS_P1;PMS_P2;Temp;Humidity;BMP_temperature;BMP_pressure;BME280_temperature;BME280_humidity;BME280_pressure;Samples;Min_cycle;Max_cycle;Signal;HPM_P1;HPM_P2
2022/09/29 00:01:02;;;;;;;11.13;9.83;;;;;;;;;;5090010;28;20222;-77
2022/09/29 00:03:30;;;;;;;13.70;10.90;;;;;;;;;;5096060;28;20264;-77
2022/09/29 00:05:59;;;;;;;12.60;10.83;;;;;;;;;;5088080;28;20198;-77
2022/09/29 00:08:28;;;;;;;12.83;10.67;;;;;;;;;;5082392;28;20292;-77
2022/09/29 00:10:57;;;;;;;13.30;10.83;;;;;;;;;;5088036;28;20241;-77
2022/09/29 00:13:26;;;;;;;15.30;11.93;;;;;;;;;;5074709;28;20250;-77
2022/09/29 00:15:58;;;;;;;15.13;12.07;;;;;;;;;;5078158;28;20298;-77
2022/09/29 00:18:29;;;;;;;14.63;12.00;;;;;;;;;;5089773;28;20237;-77
2022/09/29 00:20:58;;;;;;;14.20;12.13;;;;;;;;;;5092563;28;20621;-77
2022/09/29 00:23:26;;;;;;;15.53;11.60;;;;;;;;;;5086322;28;20217;-77
2022/09/29 00:26:05;;;;;;;15.20;12.30;;;;;;;;;;5088225;28;20234;-77
2022/09/29 00:28:34;;;;;;;14.93;13.13;;;;;;;;;;5075697;28;20206;-77
2022/09/29 00:31:03;;;;;;;17.80;13.47;;;;;;;;;;5080560;28;20260;-77
2022/09/29 00:33:34;;;;;;;16.47;12.60;;;;;;;;;;5095193;28;20699;-77
2022/09/29 00:36:04;;;;;;;17.80;14.37;;;;;;;;;;5086219;28;20234;-77
2022/09/29 00:38:33;;;;;;;20.53;15.23;;;;;;;;;;5076262;28;20233;-77
2022/09/29 00:41:01;;;;;;;19.47;14.07;;;;;;;;;;5079466;28;20198;-77
2022/09/29 00:43:50;;;;;;;20.30;14.77;;;;;;;;;;5094737;28;20221;-77
2022/09/29 00:46:19;;;;;;;18.83;14.73;;;;;;;;;;5087052;28;20198;-77
2022/09/29 00:48:50;;;;;;;18.40;14.73;;;;;;;;;;5093286;28;20655;-77
2022/09/29 00:51:19;;;;;;;20.07;14.97;;;;;;;;;;5086201;28;20238;-77
2022/09/29 00:53:48;;;;;;;19.63;14.90;;;;;;;;;;5074284;28;20264;-77
2022/09/29 00:56:19;;;;;;;21.03;14.90;;;;;;;;;;5074617;28;20626;-77
2022/09/29 00:58:53;;;;;;;19.37;15.17;;;;;;;;;;5086811;28;20280;-78
2022/09/29 01:01:22;;;;;;;21.90;15.80;;;;;;;;;;5080156;28;20229;-77
2022/09/29 01:03:54;;;;;;;23.40;18.23;;;;;;;;;;5074205;28;20309;-77
2022/09/29 01:06:25;;;;;;;25.77;19.70;;;;;;;;;;5082901;28;20233;-77
2022/09/29 01:08:57;;;;;;;25.60;20.33;;;;;;;;;;5094067;28;20241;-77
2022/09/29 01:11:25;;;;;;;32.37;22.70;;;;;;;;;;5093389;28;20757;-77
2022/09/29 01:13:56;;;;;;;33.17;24.27;;;;;;;;;;5074116;28;20633;-77
2022/09/29 01:16:24;;;;;;;36.40;25.57;;;;;;;;;;5081449;28;20254;-77
2022/09/29 01:18:55;;;;;;;40.70;27.73;;;;;;;;;;5074730;28;20260;-77
2022/09/29 01:21:26;;;;;;;40.57;28.07;;;;;;;;;;5074362;28;20664;-77
2022/09/29 01:24:09;;;;;;;40.77;28.23;;;;;;;;;;5073603;28;20249;-77
2022/09/29 01:27:01;;;;;;;40.23;28.37;;;;;;;;;;5076493;28;20193;-77
2022/09/29 01:29:47;;;;;;;41.97;28.70;;;;;;;;;;5094298;28;20239;-77
2022/09/29 01:32:20;;;;;;;40.00;28.50;;;;;;;;;;5076615;28;20291;-77
2022/09/29 01:34:54;;;;;;;41.30;28.90;;;;;;;;;;5074122;28;20298;-77
2022/09/29 01:37:29;;;;;;;38.17;28.37;;;;;;;;;;5073606;28;20232;-77
2022/09/29 01:40:03;;;;;;;39.83;29.40;;;;;;;;;;5074850;28;20234;-77
2022/09/29 01:42:35;;;;;;;38.27;28.40;;;;;;;;;;5073853;28;20309;-77
2022/09/29 01:45:07;;;;;;;37.47;28.17;;;;;;;;;;5084681;28;20234;-77
2022/09/29 01:47:38;;;;;;;39.93;28.47;;;;;;;;;;5082312;28;20237;-77
2022/09/29 01:50:09;;;;;;;36.20;26.13;;;;;;;;;;5085414;28;20386;-77
2022/09/29 01:52:42;;;;;;;37.80;27.60;;;;;;;;;;5081358;28;20672;-77
2022/09/29 01:55:12;;;;;;;37.57;27.83;;;;;;;;;;5081578;28;20257;-77
2022/09/29 01:57:45;;;;;;;39.13;28.57;;;;;;;;;;5073573;28;20641;-77
2022/09/29 02:00:15;;;;;;;42.10;30.13;;;;;;;;;;5074029;28;20644;-77
2022/09/29 02:02:47;;;;;;;42.27;30.07;;;;;;;;;;5073155;28;20286;-77
2022/09/29 02:05:18;;;;;;;43.43;31.10;;;;;;;;;;5073248;28;20222;-77
2022/09/29 02:07:48;;;;;;;41.07;29.73;;;;;;;;;;5077584;28;20236;-77
2022/09/29 02:10:19;;;;;;;45.07;31.00;;;;;;;;;;5078585;28;20575;-77
2022/09/29 02:12:49;;;;;;;42.40;29.73;;;;;;;;;;5073093;28;20254;-77
2022/09/29 02:15:22;;;;;;;42.83;29.37;;;;;;;;;;5083525;28;20202;-76
2022/09/29 02:17:52;;;;;;;39.53;29.87;;;;;;;;;;5083686;28;20240;-76
2022/09/29 02:20:21;;;;;;;40.37;28.90;;;;;;;;;;5078455;28;20203;-76
2022/09/29 02:22:50;;;;;;;38.43;28.17;;;;;;;;;;5072667;28;20309;-79
2022/09/29 02:25:19;;;;;;;38.97;29.50;;;;;;;;;;5076843;28;20722;-79
2022/09/29 02:27:49;;;;;;;43.23;28.87;;;;;;;;;;5093196;28;20288;-80
2022/09/29 02:30:18;;;;;;;36.40;28.43;;;;;;;;;;5093242;28;20235;-80
2022/09/29 02:32:47;;;;;;;34.13;26.50;;;;;;;;;;5077584;28;20238;-79
2022/09/29 02:35:17;;;;;;;35.50;28.23;;;;;;;;;;5076795;28;20734;-79
2022/09/29 02:37:54;;;;;;;34.47;26.60;;;;;;;;;;5076694;28;20260;-79
2022/09/29 02:40:28;;;;;;;34.20;26.10;;;;;;;;;;5076542;28;20198;-79
2022/09/29 02:43:06;;;;;;;34.40;25.63;;;;;;;;;;5076391;28;20574;-79
2022/09/29 02:45:39;;;;;;;35.17;26.53;;;;;;;;;;5075919;28;20245;-79
2022/09/29 02:48:15;;;;;;;34.40;26.20;;;;;;;;;;5094069;28;20213;-79
2022/09/29 02:50:51;;;;;;;33.73;25.50;;;;;;;;;;5081753;28;20280;-78
2022/09/29 02:53:23;;;;;;;30.47;24.53;;;;;;;;;;5083435;28;20310;-78
2022/09/29 02:55:56;;;;;;;32.07;24.70;;;;;;;;;;5096429;28;20245;-79
2022/09/29 02:58:28;;;;;;;35.50;26.17;;;;;;;;;;5093913;28;20193;-79
2022/09/29 03:00:58;;;;;;;33.57;24.73;;;;;;;;;;5079795;28;20643;-78
2022/09/29 03:03:26;;;;;;;32.90;25.67;;;;;;;;;;5075941;28;20226;-78
2022/09/29 03:05:56;;;;;;;29.80;23.87;;;;;;;;;;5076016;28;20231;-77
2022/09/29 03:08:25;;;;;;;29.07;22.83;;;;;;;;;;5075278;28;20253;-77
2022/09/29 03:10:53;;;;;;;27.57;22.20;;;;;;;;;;5077679;28;20222;-79
2022/09/29 03:13:22;;;;;;;30.07;23.60;;;;;;;;;;5076421;28;20653;-78
2022/09/29 03:15:50;;;;;;;28.83;23.53;;;;;;;;;;5082521;28;20640;-78
2022/09/29 03:18:21;;;;;;;29.13;23.40;;;;;;;;;;5090357;28;20262;-77
2022/09/29 03:20:50;;;;;;;32.20;24.40;;;;;;;;;;5076968;28;20245;-79
2022/09/29 03:23:19;;;;;;;32.43;23.93;;;;;;;;;;5095675;28;20264;-79
2022/09/29 03:25:48;;;;;;;31.20;24.77;;;;;;;;;;5075849;28;20199;-79
2022/09/29 03:28:17;;;;;;;30.17;23.57;;;;;;;;;;5079193;28;20232;-78
2022/09/29 03:30:46;;;;;;;30.73;23.13;;;;;;;;;;5075844;28;20209;-79
2022/09/29 03:33:14;;;;;;;28.03;22.63;;;;;;;;;;5083046;28;20222;-78
2022/09/29 03:35:43;;;;;;;28.80;23.67;;;;;;;;;;5095713;28;20213;-79
2022/09/29 03:38:12;;;;;;;30.37;24.10;;;;;;;;;;5088361;28;20194;-79
2022/09/29 03:40:42;;;;;;;31.07;23.63;;;;;;;;;;5075488;28;20202;-80
2022/09/29 03:43:10;;;;;;;30.97;23.70;;;;;;;;;;5084722;28;20241;-79
2022/09/29 03:45:39;;;;;;;31.37;24.27;;;;;;;;;;5075095;28;20198;-79
2022/09/29 03:48:07;;;;;;;31.40;24.60;;;;;;;;;;5088190;28;20745;-79
2022/09/29 03:50:36;;;;;;;34.93;25.50;;;;;;;;;;5094944;28;20289;-78
2022/09/29 03:53:05;;;;;;;28.83;23.33;;;;;;;;;;5095612;28;20267;-79
2022/09/29 03:55:33;;;;;;;31.10;23.97;;;;;;;;;;5094802;28;20288;-78
2022/09/29 03:58:03;;;;;;;37.17;25.30;;;;;;;;;;5075191;28;20663;-77
2022/09/29 04:00:32;;;;;;;31.73;23.97;;;;;;;;;;5086555;28;20226;-79
2022/09/29 04:03:00;;;;;;;29.53;23.63;;;;;;;;;;5074919;28;20222;-78
2022/09/29 04:05:29;;;;;;;30.17;24.33;;;;;;;;;;5075240;28;20634;-78
2022/09/29 04:07:58;;;;;;;28.40;23.23;;;;;;;;;;5074479;28;20698;-79
2022/09/29 04:10:26;;;;;;;28.23;23.07;;;;;;;;;;5089033;28;20214;-78
2022/09/29 04:12:55;;;;;;;28.53;23.33;;;;;;;;;;5095049;28;20695;-79
2022/09/29 04:15:25;;;;;;;26.47;22.27;;;;;;;;;;5088072;28;20233;-79
2022/09/29 04:17:53;;;;;;;30.33;22.83;;;;;;;;;;5086128;28;20249;-79
2022/09/29 04:20:23;;;;;;;29.20;23.30;;;;;;;;;;5074957;28;20264;-79
2022/09/29 04:22:52;;;;;;;29.37;22.43;;;;;;;;;;5072673;28;20222;-79
2022/09/29 04:25:21;;;;;;;30.27;23.70;;;;;;;;;;5074384;28;20297;-79
2022/09/29 04:27:49;;;;;;;31.17;23.23;;;;;;;;;;5074265;28;20249;-79
2022/09/29 04:30:18;;;;;;;31.67;24.10;;;;;;;;;;5077042;28;20248;-79
2022/09/29 04:32:48;;;;;;;31.10;24.27;;;;;;;;;;5094446;28;20694;-78
2022/09/29 04:35:17;;;;;;;29.33;22.10;;;;;;;;;;5094765;28;20658;-79
2022/09/29 04:37:45;;;;;;;33.67;23.23;;;;;;;;;;5088960;28;20227;-78
2022/09/29 04:40:14;;;;;;;31.90;24.23;;;;;;;;;;5074418;28;20255;-79
2022/09/29 04:42:42;;;;;;;33.63;24.07;;;;;;;;;;5078578;28;20244;-79
2022/09/29 04:45:11;;;;;;;30.93;23.00;;;;;;;;;;5094806;28;20205;-79
2022/09/29 04:47:39;;;;;;;30.07;22.83;;;;;;;;;;5085788;28;20282;-79
2022/09/29 04:50:10;;;;;;;30.20;22.10;;;;;;;;;;5091303;28;20237;-79
2022/09/29 04:52:38;;;;;;;27.50;21.63;;;;;;;;;;5074515;28;20708;-79
2022/09/29 04:55:10;;;;;;;31.03;23.90;;;;;;;;;;5073549;28;20206;-78
2022/09/29 04:57:38;;;;;;;30.60;24.10;;;;;;;;;;5079301;28;20573;-79
2022/09/29 05:00:08;;;;;;;30.70;22.93;;;;;;;;;;5091172;28;20195;-78
2022/09/29 05:02:36;;;;;;;33.70;25.17;;;;;;;;;;5074452;28;20688;-78
2022/09/29 05:05:06;;;;;;;32.20;24.80;;;;;;;;;;5077042;28;20209;-78
2022/09/29 05:07:37;;;;;;;31.93;24.23;;;;;;;;;;5091595;28;20206;-79
2022/09/29 05:10:05;;;;;;;33.77;25.70;;;;;;;;;;5090959;28;20215;-79
2022/09/29 05:12:34;;;;;;;38.07;27.40;;;;;;;;;;5081454;28;20301;-78
2022/09/29 05:15:03;;;;;;;32.70;26.10;;;;;;;;;;5094383;28;20634;-78
2022/09/29 05:17:32;;;;;;;38.53;27.93;;;;;;;;;;5095305;28;20294;-78
2022/09/29 05:20:00;;;;;;;34.00;25.60;;;;;;;;;;5089063;28;20631;-79
2022/09/29 05:22:29;;;;;;;39.00;27.80;;;;;;;;;;5089528;28;20248;-79
2022/09/29 05:24:59;;;;;;;39.23;26.93;;;;;;;;;;5088046;28;20245;-78
2022/09/29 05:27:27;;;;;;;38.20;27.67;;;;;;;;;;5073512;28;20203;-79
2022/09/29 05:29:56;;;;;;;33.13;25.53;;;;;;;;;;5073989;28;20655;-79
2022/09/29 05:32:24;;;;;;;37.70;27.27;;;;;;;;;;5072827;28;20313;-79
2022/09/29 05:34:53;;;;;;;35.93;25.90;;;;;;;;;;5075621;28;20598;-79
2022/09/29 05:37:21;;;;;;;37.97;26.33;;;;;;;;;;5085140;28;20237;-78
2022/09/29 05:39:50;;;;;;;38.53;27.23;;;;;;;;;;5089680;28;20206;-79
2022/09/29 05:42:20;;;;;;;39.30;27.23;;;;;;;;;;5073119;28;20276;-78
2022/09/29 05:44:48;;;;;;;34.97;25.57;;;;;;;;;;5072228;28;20302;-77
2022/09/29 05:47:17;;;;;;;33.60;25.97;;;;;;;;;;5078221;28;20205;-78
2022/09/29 05:49:45;;;;;;;32.37;24.80;;;;;;;;;;5092136;28;20240;-78
2022/09/29 05:52:14;;;;;;;35.73;26.73;;;;;;;;;;5092588;28;20201;-77
2022/09/29 05:54:42;;;;;;;31.77;24.30;;;;;;;;;;5092115;28;20241;-78
2022/09/29 05:57:11;;;;;;;34.03;25.00;;;;;;;;;;5092479;28;20249;-78
2022/09/29 05:59:41;;;;;;;35.90;25.23;;;;;;;;;;5092451;28;20240;-79
2022/09/29 06:02:10;;;;;;;32.70;24.60;;;;;;;;;;5093311;28;20297;-79
2022/09/29 06:04:38;;;;;;;36.60;26.03;;;;;;;;;;5094000;28;20292;-79
2022/09/29 06:07:08;;;;;;;39.87;28.43;;;;;;;;;;5098067;28;20637;-79
2022/09/29 06:09:36;;;;;;;42.80;28.77;;;;;;;;;;5097931;28;20247;-78
2022/09/29 06:12:05;;;;;;;42.70;29.30;;;;;;;;;;5098060;28;20228;-78
2022/09/29 06:14:34;;;;;;;44.83;30.97;;;;;;;;;;5097580;28;20265;-79
2022/09/29 06:17:04;;;;;;;44.00;30.10;;;;;;;;;;5098002;28;20179;-79
2022/09/29 06:19:33;;;;;;;42.20;30.70;;;;;;;;;;5097928;28;20715;-78
2022/09/29 06:22:01;;;;;;;50.50;33.30;;;;;;;;;;5097522;28;20245;-78
2022/09/29 06:24:30;;;;;;;58.53;35.43;;;;;;;;;;5097618;28;20264;-79
2022/09/29 06:26:58;;;;;;;51.93;35.33;;;;;;;;;;5097612;28;20245;-78
2022/09/29 06:29:27;;;;;;;61.33;39.87;;;;;;;;;;5097543;28;20202;-78
2022/09/29 06:31:55;;;;;;;60.07;39.10;;;;;;;;;;5097137;28;20249;-79
2022/09/29 06:34:25;;;;;;;64.00;41.27;;;;;;;;;;5097355;28;20230;-78
2022/09/29 06:39:40;;;;;;;61.03;38.57;;;;;;;;;;5097542;28;20197;-78
2022/09/29 06:42:08;;;;;;;61.70;38.93;;;;;;;;;;5098178;28;20526;-79
2022/09/29 06:44:37;;;;;;;56.90;36.67;;;;;;;;;;5097510;28;20198;-79
2022/09/29 06:47:05;;;;;;;59.10;37.77;;;;;;;;;;5097387;28;20229;-78
2022/09/29 06:49:35;;;;;;;58.47;37.27;;;;;;;;;;5097061;28;20663;-78
2022/09/29 06:52:04;;;;;;;55.50;36.47;;;;;;;;;;5097560;28;20198;-78
2022/09/29 06:54:47;;;;;;;50.43;34.50;;;;;;;;;;5097173;28;20563;-79
2022/09/29 06:57:16;;;;;;;49.67;34.20;;;;;;;;;;5096761;28;20293;-78
2022/09/29 06:59:44;;;;;;;45.60;32.17;;;;;;;;;;5097454;28;20230;-79
2022/09/29 07:02:13;;;;;;;46.63;30.77;;;;;;;;;;5096943;28;20229;-78
2022/09/29 07:04:42;;;;;;;39.10;29.60;;;;;;;;;;5097222;28;20577;-79
2022/09/29 07:07:11;;;;;;;38.03;28.40;;;;;;;;;;5097130;28;20237;-78
2022/09/29 07:09:41;;;;;;;36.40;28.20;;;;;;;;;;5096800;28;20209;-77
2022/09/29 07:12:11;;;;;;;37.07;28.13;;;;;;;;;;5096968;28;20613;-78
2022/09/29 07:14:39;;;;;;;36.37;27.33;;;;;;;;;;5096665;28;20749;-79
2022/09/29 07:17:08;;;;;;;36.20;27.40;;;;;;;;;;5096168;28;20202;-79
2022/09/29 07:19:36;;;;;;;36.37;26.37;;;;;;;;;;5096673;28;20296;-79
2022/09/29 07:22:08;;;;;;;35.70;27.57;;;;;;;;;;5096653;28;20259;-79
2022/09/29 07:24:37;;;;;;;37.60;27.47;;;;;;;;;;5096734;28;20189;-79
2022/09/29 07:27:08;;;;;;;35.37;27.10;;;;;;;;;;5096411;28;20296;-78
2022/09/29 07:29:36;;;;;;;34.83;26.17;;;;;;;;;;5096457;28;20236;-79
2022/09/29 07:32:05;;;;;;;33.57;25.20;;;;;;;;;;5096328;28;20209;-79
2022/09/29 07:34:37;;;;;;;31.07;23.67;;;;;;;;;;5096348;28;20312;-79
2022/09/29 07:37:07;;;;;;;30.33;24.03;;;;;;;;;;5093099;28;20201;-78
2022/09/29 07:39:35;;;;;;;30.13;23.20;;;;;;;;;;5091556;28;20259;-79
2022/09/29 07:42:04;;;;;;;27.90;22.73;;;;;;;;;;5095749;28;20244;-79
2022/09/29 07:44:36;;;;;;;28.03;21.50;;;;;;;;;;5096001;28;20213;-79
2022/09/29 07:47:05;;;;;;;29.50;21.50;;;;;;;;;;5095955;28;20206;-79
2022/09/29 07:49:34;;;;;;;27.03;21.50;;;;;;;;;;5095736;28;20636;-78
2022/09/29 07:52:02;;;;;;;27.13;21.70;;;;;;;;;;5095535;28;20205;-79
2022/09/29 07:54:32;;;;;;;26.87;21.43;;;;;;;;;;5095491;28;20268;-79
2022/09/29 07:57:02;;;;;;;26.80;20.83;;;;;;;;;;5095412;28;20253;-79
2022/09/29 07:59:31;;;;;;;26.70;20.73;;;;;;;;;;5095612;28;20229;-79
2022/09/29 08:02:01;;;;;;;26.77;21.37;;;;;;;;;;5086646;28;20292;-79
2022/09/29 08:04:30;;;;;;;25.67;20.03;;;;;;;;;;5075293;28;20222;-80
2022/09/29 08:06:58;;;;;;;25.10;19.93;;;;;;;;;;5075515;28;20574;-78
2022/09/29 08:09:27;;;;;;;26.37;19.83;;;;;;;;;;5075424;28;20234;-79
2022/09/29 08:12:09;;;;;;;23.40;19.87;;;;;;;;;;5075418;28;20186;-79
2022/09/29 08:14:38;;;;;;;26.97;20.20;;;;;;;;;;5075185;28;20261;-78
2022/09/29 08:17:11;;;;;;;25.50;19.70;;;;;;;;;;5075134;28;20309;-78
2022/09/29 08:19:39;;;;;;;26.87;20.73;;;;;;;;;;5075431;28;20206;-79
2022/09/29 08:22:08;;;;;;;25.03;19.63;;;;;;;;;;5074901;28;20298;-79
2022/09/29 08:24:39;;;;;;;24.23;20.03;;;;;;;;;;5074829;28;20198;-79
2022/09/29 08:27:07;;;;;;;25.00;19.97;;;;;;;;;;5075067;28;20190;-78
2022/09/29 08:29:47;;;;;;;25.07;20.07;;;;;;;;;;5074902;28;20268;-78
2022/09/29 08:32:16;;;;;;;22.90;19.37;;;;;;;;;;5074406;28;20214;-78
2022/09/29 08:34:44;;;;;;;25.63;20.23;;;;;;;;;;5074902;28;20222;-79
2022/09/29 08:37:13;;;;;;;24.57;18.83;;;;;;;;;;5075098;28;20698;-78
2022/09/29 08:39:41;;;;;;;23.37;19.17;;;;;;;;;;5074711;28;20246;-79
2022/09/29 08:42:16;;;;;;;24.30;19.70;;;;;;;;;;5074675;28;20241;-78
2022/09/29 08:44:47;;;;;;;22.47;18.53;;;;;;;;;;5091323;28;20325;-78
2022/09/29 08:47:19;;;;;;;22.43;19.50;;;;;;;;;;5094904;28;20289;-78
2022/09/29 08:49:49;;;;;;;24.13;19.37;;;;;;;;;;5094937;28;20186;-78
2022/09/29 08:52:20;;;;;;;25.10;18.50;;;;;;;;;;5094395;28;20296;-78
2022/09/29 08:54:50;;;;;;;21.67;17.97;;;;;;;;;;5095345;28;20226;-79
2022/09/29 08:57:20;;;;;;;20.53;17.50;;;;;;;;;;5094962;28;20187;-78
2022/09/29 08:59:53;;;;;;;19.20;17.20;;;;;;;;;;5094882;28;20230;-78
2022/09/29 09:02:43;;;;;;;19.97;16.67;;;;;;;;;;5094486;28;20607;-78
2022/09/29 09:05:26;;;;;;;19.60;16.47;;;;;;;;;;5095138;28;20194;-79
2022/09/29 09:07:59;;;;;;;17.07;14.50;;;;;;;;;;5094528;28;20233;-78
2022/09/29 09:10:36;;;;;;;20.43;15.17;;;;;;;;;;5094210;28;20189;-77
2022/09/29 09:13:08;;;;;;;18.00;15.13;;;;;;;;;;5094046;28;20217;-77
2022/09/29 09:15:39;;;;;;;18.13;15.23;;;;;;;;;;5094033;28;20305;-79
2022/09/29 09:18:21;;;;;;;18.57;15.37;;;;;;;;;;5094576;28;20628;-79
2022/09/29 09:20:53;;;;;;;14.13;12.33;;;;;;;;;;5094599;28;20605;-78
2022/09/29 09:23:23;;;;;;;13.80;11.67;;;;;;;;;;5094816;28;20257;-78
2022/09/29 09:25:54;;;;;;;13.73;11.70;;;;;;;;;;5094220;28;20241;-78
2022/09/29 09:28:27;;;;;;;13.60;11.50;;;;;;;;;;5094575;28;20236;-79
2022/09/29 09:30:58;;;;;;;12.43;11.23;;;;;;;;;;5094409;28;20267;-78
2022/09/29 09:33:38;;;;;;;12.07;10.87;;;;;;;;;;5094292;28;20626;-78
2022/09/29 09:36:09;;;;;;;12.00;10.37;;;;;;;;;;5094050;28;20205;-79
2022/09/29 09:38:42;;;;;;;10.23;9.23;;;;;;;;;;5094212;28;20607;-79
2022/09/29 09:41:10;;;;;;;10.63;9.27;;;;;;;;;;5093485;28;20186;-78
2022/09/29 09:43:41;;;;;;;11.80;10.47;;;;;;;;;;5093768;28;20309;-78
2022/09/29 09:46:13;;;;;;;11.07;9.37;;;;;;;;;;5093836;28;20229;-78
2022/09/29 09:48:45;;;;;;;12.27;10.43;;;;;;;;;;5094153;28;20247;-79
2022/09/29 09:51:30;;;;;;;10.60;9.57;;;;;;;;;;5094271;28;20258;-79
2022/09/29 09:53:59;;;;;;;9.73;8.80;;;;;;;;;;5094125;28;20751;-79
2022/09/29 09:56:37;;;;;;;9.37;7.60;;;;;;;;;;5093834;28;20320;-78
2022/09/29 09:59:12;;;;;;;9.07;7.87;;;;;;;;;;5093997;28;20276;-78
2022/09/29 10:01:41;;;;;;;10.87;9.40;;;;;;;;;;5093926;28;20225;-79
2022/09/29 10:04:12;;;;;;;8.90;7.70;;;;;;;;;;5093722;28;20218;-78
2022/09/29 10:06:41;;;;;;;6.70;6.00;;;;;;;;;;5093855;28;20212;-79
2022/09/29 10:09:13;;;;;;;6.80;6.10;;;;;;;;;;5081294;28;20233;-79
2022/09/29 10:11:41;;;;;;;7.63;6.90;;;;;;;;;;5073915;28;20190;-79
2022/09/29 10:14:13;;;;;;;8.40;7.60;;;;;;;;;;5073409;28;20258;-79
2022/09/29 10:16:44;;;;;;;10.47;7.73;;;;;;;;;;5073772;28;20774;-79
2022/09/29 10:19:15;;;;;;;8.17;7.10;;;;;;;;;;5073815;28;20187;-79
2022/09/29 10:21:45;;;;;;;8.40;7.60;;;;;;;;;;5073439;28;20190;-79
2022/09/29 10:24:24;;;;;;;8.43;7.33;;;;;;;;;;5073389;28;20719;-79
2022/09/29 10:26:54;;;;;;;7.25;6.55;;;;;;;;;;5073193;28;20685;-78
2022/09/29 10:29:26;;;;;;;7.78;6.18;;;;;;;;;;5073452;28;20244;-79
2022/09/29 10:31:59;;;;;;;8.43;7.30;;;;;;;;;;5072697;28;20257;-79
2022/09/29 10:34:30;;;;;;;8.95;6.82;;;;;;;;;;5073102;28;20680;-79
2022/09/29 10:37:00;;;;;;;7.45;6.50;;;;;;;;;;5073303;28;20632;-79
2022/09/29 10:39:33;;;;;;;8.65;7.60;;;;;;;;;;5073085;28;20248;-79
2022/09/29 10:42:03;;;;;;;7.05;6.40;;;;;;;;;;5073127;28;20245;-78
2022/09/29 10:44:33;;;;;;;8.27;5.50;;;;;;;;;;5072748;28;20230;-79
2022/09/29 10:47:01;;;;;;;6.15;5.45;;;;;;;;;;5073066;28;20211;-79
2022/09/29 10:49:31;;;;;;;5.37;4.40;;;;;;;;;;5073020;28;20225;-79
2022/09/29 10:52:04;;;;;;;5.97;5.37;;;;;;;;;;5073832;28;20241;-79
2022/09/29 10:54:33;;;;;;;6.60;5.57;;;;;;;;;;5076575;28;20253;-79
2022/09/29 10:57:12;;;;;;;6.93;5.53;;;;;;;;;;5075970;28;20309;-78
2022/09/29 10:59:47;;;;;;;5.63;4.47;;;;;;;;;;5076152;28;20232;-79
2022/09/29 11:02:20;;;;;;;6.30;5.37;;;;;;;;;;5076377;28;20236;-78
2022/09/29 11:04:50;;;;;;;7.70;7.00;;;;;;;;;;5076527;28;20214;-79
2022/09/29 11:07:19;;;;;;;7.03;5.82;;;;;;;;;;5075943;28;20226;-79
2022/09/29 11:09:49;;;;;;;6.70;5.03;;;;;;;;;;5075911;28;20289;-79
2022/09/29 11:12:26;;;;;;;4.07;3.22;;;;;;;;;;5075692;28;20230;-80
2022/09/29 11:14:55;;;;;;;3.92;3.53;;;;;;;;;;5076121;28;20238;-79
2022/09/29 11:17:25;;;;;;;5.23;3.97;;;;;;;;;;5075713;28;20249;-80
2022/09/29 11:19:55;;;;;;;3.67;3.37;;;;;;;;;;5075439;28;20206;-77
2022/09/29 11:22:36;;;;;;;5.07;3.30;;;;;;;;;;5075695;28;20182;-79
2022/09/29 11:25:29;;;;;;;4.20;3.37;;;;;;;;;;5086436;28;20221;-78
2022/09/29 11:28:05;;;;;;;5.47;3.47;;;;;;;;;;5039955;28;20231;-79
2022/09/29 11:30:38;;;;;;;4.20;3.80;;;;;;;;;;5095826;28;20178;-79
2022/09/29 11:33:14;;;;;;;4.43;4.13;;;;;;;;;;5095953;28;20280;-79
2022/09/29 11:35:55;;;;;;;4.97;4.53;;;;;;;;;;5095708;28;20271;-80
2022/09/29 11:38:32;;;;;;;5.03;4.10;;;;;;;;;;5095921;28;20681;-79
2022/09/29 11:41:06;;;;;;;5.43;4.57;;;;;;;;;;5095751;28;20178;-79
2022/09/29 11:43:42;;;;;;;6.10;5.37;;;;;;;;;;5088049;28;20237;-79
2022/09/29 11:46:15;;;;;;;5.20;4.70;;;;;;;;;;5075143;28;20241;-80
2022/09/29 11:48:52;;;;;;;5.23;4.73;;;;;;;;;;5076220;28;20319;-80
2022/09/29 11:51:27;;;;;;;3.93;3.63;;;;;;;;;;5075499;28;20218;-79
2022/09/29 11:54:13;;;;;;;3.10;2.80;;;;;;;;;;5075326;28;20275;-80
2022/09/29 11:56:46;;;;;;;4.00;3.30;;;;;;;;;;5075099;28;20210;-79
2022/09/29 11:59:25;;;;;;;5.10;3.83;;;;;;;;;;5075138;28;20237;-78
2022/09/29 12:01:59;;;;;;;5.23;4.73;;;;;;;;;;5075146;28;20289;-79
2022/09/29 12:04:33;;;;;;;6.80;5.87;;;;;;;;;;5074761;28;20260;-79
2022/09/29 12:07:07;;;;;;;6.23;5.60;;;;;;;;;;5074861;28;20600;-78
2022/09/29 12:09:45;;;;;;;5.97;5.33;;;;;;;;;;5074977;28;20213;-80
2022/09/29 12:12:17;;;;;;;6.13;5.10;;;;;;;;;;5074701;28;20182;-78
2022/09/29 12:15:01;;;;;;;9.50;5.50;;;;;;;;;;5074731;28;20186;-78
2022/09/29 12:17:32;;;;;;;5.70;5.20;;;;;;;;;;5074839;28;20232;-80
2022/09/29 12:20:03;;;;;;;4.20;3.80;;;;;;;;;;5074656;28;20183;-79
2022/09/29 12:22:33;;;;;;;6.97;4.10;;;;;;;;;;5074835;28;20222;-79
2022/09/29 12:25:04;;;;;;;5.20;4.20;;;;;;;;;;5074434;28;20202;-79
2022/09/29 12:27:35;;;;;;;5.55;3.85;;;;;;;;;;5074609;28;20630;-79
2022/09/29 12:30:05;;;;;;;4.82;3.75;;;;;;;;;;5074675;28;20202;-80
2022/09/29 12:32:35;;;;;;;5.97;4.47;;;;;;;;;;5074085;28;20321;-80
2022/09/29 12:35:06;;;;;;;4.05;3.65;;;;;;;;;;5074563;28;20187;-80
2022/09/29 12:37:39;;;;;;;6.15;4.10;;;;;;;;;;5074434;28;20222;-79
2022/09/29 12:40:12;;;;;;;4.65;4.20;;;;;;;;;;5074420;28;20566;-79
2022/09/29 12:42:48;;;;;;;6.20;4.43;;;;;;;;;;5074355;28;20763;-79
2022/09/29 12:45:21;;;;;;;5.57;3.38;;;;;;;;;;5075452;28;20228;-80
2022/09/29 12:48:00;;;;;;;4.72;3.80;;;;;;;;;;5076065;28;20219;-81
2022/09/29 12:50:30;;;;;;;4.25;3.00;;;;;;;;;;5075281;28;20232;-80
2022/09/29 12:53:04;;;;;;;3.67;2.55;;;;;;;;;;5073877;28;20703;-79
2022/09/29 12:55:42;;;;;;;2.30;2.10;;;;;;;;;;5074039;28;20551;-79
2022/09/29 12:58:14;;;;;;;2.53;2.30;;;;;;;;;;5074174;28;20214;-79
2022/09/29 13:00:45;;;;;;;3.58;2.17;;;;;;;;;;5073950;28;20221;-79
2022/09/29 13:03:34;;;;;;;3.05;2.72;;;;;;;;;;5074039;28;20275;-80
2022/09/29 13:06:15;;;;;;;4.07;2.67;;;;;;;;;;5073732;28;20222;-78
2022/09/29 13:09:04;;;;;;;5.28;3.42;;;;;;;;;;5073421;28;20225;-79
2022/09/29 13:11:44;;;;;;;3.78;3.28;;;;;;;;;;5068990;28;20203;-78
2022/09/29 13:14:33;;;;;;;22.98;7.95;;;;;;;;;;5073243;28;20284;-78
2022/09/29 13:17:09;;;;;;;2.65;2.45;;;;;;;;;;5048657;28;20244;-79
2022/09/29 13:19:49;;;;;;;2.80;2.00;;;;;;;;;;5073691;28;20229;-79
2022/09/29 13:22:33;;;;;;;2.80;2.08;;;;;;;;;;5073871;28;20252;-79
2022/09/29 13:25:04;;;;;;;3.35;2.60;;;;;;;;;;5074167;28;20230;-79
2022/09/29 13:27:37;;;;;;;76.15;29.25;;;;;;;;;;5076677;28;20697;-79
2022/09/29 13:30:13;;;;;;;4.95;3.50;;;;;;;;;;5077064;28;20237;-78
2022/09/29 13:32:42;;;;;;;8.95;4.35;;;;;;;;;;5075202;28;20287;-78
2022/09/29 13:35:16;;;;;;;3.67;2.30;;;;;;;;;;5075570;28;20191;-77
2022/09/29 13:37:46;;;;;;;1.23;1.10;;;;;;;;;;5074702;28;20305;-79
2022/09/29 13:40:19;;;;;;;1.20;1.10;;;;;;;;;;5073116;28;20210;-79
2022/09/29 13:42:50;;;;;;;1.50;1.40;;;;;;;;;;5072996;28;20260;-79
2022/09/29 13:45:34;;;;;;;1.40;1.30;;;;;;;;;;5077697;28;20267;-78
2022/09/29 13:48:03;;;;;;;1.98;1.17;;;;;;;;;;5080397;28;20202;-78
2022/09/29 13:50:42;;;;;;;1.92;1.55;;;;;;;;;;5074751;28;20259;-78
2022/09/29 13:53:34;;;;;;;2.47;1.50;;;;;;;;;;5071002;28;20305;-78
2022/09/29 13:56:16;;;;;;;3.70;1.60;;;;;;;;;;5071287;28;20206;-78
2022/09/29 13:58:59;;;;;;;4.07;1.65;;;;;;;;;;5075236;28;20208;-76
2022/09/29 14:01:32;;;;;;;3.58;2.08;;;;;;;;;;5072070;28;20264;-77
2022/09/29 14:04:15;;;;;;;4.80;3.13;;;;;;;;;;5072894;28;20603;-78
2022/09/29 14:06:46;;;;;;;3.25;3.00;;;;;;;;;;5071909;28;20202;-78
2022/09/29 14:09:16;;;;;;;3.63;3.00;;;;;;;;;;5093846;28;20309;-78
2022/09/29 14:11:48;;;;;;;3.47;2.90;;;;;;;;;;5076810;28;20228;-77
2022/09/29 14:14:20;;;;;;;4.07;3.47;;;;;;;;;;5083332;28;20264;-77
2022/09/29 14:16:55;;;;;;;2.60;2.35;;;;;;;;;;5073733;28;20222;-77
2022/09/29 14:19:34;;;;;;;1.90;1.80;;;;;;;;;;5088249;28;20201;-75
2022/09/29 14:22:02;;;;;;;2.42;1.67;;;;;;;;;;5071435;28;20230;-74
2022/09/29 14:24:45;;;;;;;1.83;1.50;;;;;;;;;;5072779;28;20226;-74
2022/09/29 14:27:22;;;;;;;2.10;1.77;;;;;;;;;;5075317;28;20191;-75
2022/09/29 14:29:54;;;;;;;2.33;2.00;;;;;;;;;;5076419;28;20244;-75
2022/09/29 14:32:24;;;;;;;3.15;2.50;;;;;;;;;;5075491;28;20242;-76
2022/09/29 14:34:53;;;;;;;2.87;2.33;;;;;;;;;;5087264;28;20733;-78
2022/09/29 14:37:24;;;;;;;2.47;2.27;;;;;;;;;;5075609;28;20301;-77
2022/09/29 14:42:36;;;;;;;2.97;2.67;;;;;;;;;;5067143;28;20673;-75
2022/09/29 14:53:43;;;;;;;2.53;2.00;;;;;;;;;;5095577;28;20264;-76
2022/09/29 14:56:19;;;;;;;3.08;2.30;;;;;;;;;;5087355;28;20196;-76
2022/09/29 14:58:58;;;;;;;2.80;2.53;;;;;;;;;;5078268;28;20245;-76
2022/09/29 15:01:29;;;;;;;5.70;2.60;;;;;;;;;;5086320;28;20303;-76
2022/09/29 15:03:58;;;;;;;4.30;2.67;;;;;;;;;;5077285;28;20660;-75
2022/09/29 15:06:27;;;;;;;4.60;2.92;;;;;;;;;;5075976;28;20551;-75